AirNav   Free Bose QuietComfort 20
 
 809 users online  

62NC Hickory Hill Airport
Havelock, North Carolina, USA

GOING TO HAVELOCK?


FAA INFORMATION EFFECTIVE 05 DECEMBER 2019

Location

FAA Identifier: 62NC
Lat/Long: 34-56-12.5750N 076-56-40.7960W
34-56.209583N 076-56.679933W
34.9368264,-76.9446656
(estimated)
Elevation: 30 ft. / 9 m (estimated)
Variation: 08W (1985)
From city: 4 miles N of HAVELOCK, NC
Time zone: UTC -5 (UTC -4 during Daylight Saving Time)
Zip code: 28560

Airport Operations

Airport use: Private use. Permission required prior to landing
Activation date: 07/1974
Control tower: no
ARTCC: WASHINGTON CENTER
FSS: RALEIGH FLIGHT SERVICE STATION
Attendance: UNATNDD
Wind indicator: yes
Segmented circle: no

Airport Communications

WX ASOS at EWN (9 nm NW): 118.525 (252-514-2086)
WX ASOS at MRH (19 nm SE): 135.375 (252-728-2055)

Nearby radio navigation aids

VOR radial/distance  VOR name  Freq  Var
EWNr157/9.6NEW BERN VOR/DME113.6008W
ISOr136/39.8KINSTON VORTAC109.6005W

 
NDB name  Hdg/Dist  Freq  Var  ID
KATFI136/8.436208WEW . .--
DIXON057/33.419808WDIW -.. .. .--
CHOCOWINITY175/35.338808WRNW .-. -. .--

Airport Services

Airframe service: NONE
Powerplant service: NONE

Runway Information

Runway 4/22

Dimensions: 2200 x 100 ft. / 671 x 30 m
Surface: asphalt/turf
CNTR 30' ASPH FULL LENGTH.
RUNWAY 4  RUNWAY 22
Traffic pattern: leftright

Airport Ownership and Management from official FAA records

Ownership: Privately-owned
Owner: JOHN TYLER JACKSON TRUST
P. O. BOX 300
BEAUFORT, NC 28516
Phone 252-670-8500
Manager: JERRY A JACKSON
P. O. BOX 300
BEAUFORT, NC 28516
Phone 252-670-8500

Airport Operational Statistics

Aircraft based on the field: 2
Single engine airplanes: 2
    

Additional Remarks

LAND BY PERMISSION
LOCATED INSIDE CHERRY PT. AIRPORT TRAFFIC AREA; CONTACT CHERRY PT TOWER ON 121.3 PRIOR TO ENTERING AIRPORT TRAFFIC AREA
FOR CD CTC WASHINGTON ARTCC AT 703-771-3587.

Instrument Procedures

There are no published instrument procedures at 62NC.

Some nearby airports with instrument procedures:

KNKT - Cherry Point Marine Corps Air Station (Cunningham Field) (4 nm SE)
KEWN - Coastal Carolina Regional Airport (9 nm NW)
KMRH - Michael J Smith Field Airport (19 nm SE)
KNCA - New River Marine Corps Air Station (H) (McCutcheon Field) (28 nm SW)
KOAJ - Albert J Ellis Airport (33 nm W)
 
Loc | Ops | Rwys | IFR | FBO | Links
Com | Nav | Svcs | Stats | Notes
Area around 62NC (Hickory Hill Airport)
 
Road maps at: MapQuest Bing Google
 
Aerial photo
No photo
 
Sectional chart

 
Airport distance calculator
Flying to Hickory Hill Airport? Find the distance to fly.

From to 62NC

Sunrise and sunset
Times for 09-Dec-2019
 Local
(UTC-5)
 Zulu
(UTC)
Morning civil twilight06:3711:37
Sunrise07:0512:05
Sunset16:5521:55
Evening civil twilight17:2322:23

Current date and time
Zulu (UTC)  10-Dec-2019 00:45:13
Local (UTC-5)  09-Dec-2019 19:45:13
 
METAR
KNKT 
5nm SE 
092354Z 20008KT 10SM BKN160 18/16 A3006 RMK AO2 SLP174 T01830156 10222 20178 53007
KEWN 
9nm NW 
092354Z 20007KT 10SM CLR 17/16 A3005 RMK AO2 SLP174 T01720161 10211 20167 53008
KNJM 
17nm S 
092357Z AUTO 25004KT 10SM CLR A3006 RMK AO2 SLP184 53007 TSNO $
KMRH 
19nm SE 
092358Z AUTO 18010KT 10SM CLR 18/17 A3005 RMK AO2 SLP177 T01830172 10183 20150 53005
TAF
KNKT 
5nm SE 
0823/0921 VRB06KT 6000 -SHRA BR BKN035 OVC050 QNH3022INS TEMPO 0823/0903 4800 SHRA BR BKN015 FM090300 15008KT 4800 -SHRA BR BKN010 OVC025 QNH3012INS TEMPO 0903/0909 4800 TSRA BKN005 FEW010CB BECMG 0913/0915 18010KT 9999 VCSH BKN010 OVC020 QNH3000INS T14/0823Z T21/0919Z AMD 2355
KEWN 
9nm NW 
091723Z 0918/1018 20005KT P6SM BKN150 FM100000 19008G13KT P6SM BKN250 WS020/21040KT FM100400 20009G14KT P6SM BKN250 FM101500 21010G16KT P6SM BKN120
NOTAMs
Click for the latest NOTAMs
NOTAMs are issued by the DoD/FAA and will open in a separate window not controlled by AirNav.

 

 
 

Would you like to see your business listed on this page?

 If your business provides an interesting product or service to pilots, flight crews, aircraft, or users of the Hickory Hill Airport, you should consider listing it here.  To start the listing process, click on the button below
 
Add a business
 

Other Pages about Hickory Hill Airport

Update a link
 
Copyright © AirNav, LLC. All rights reserved. Privacy Policy  Contact